createdAt,value
2022-11-05T00:00:09.570Z,3.47
2022-11-05T00:02:54.524Z,3.17
2022-11-05T00:05:39.795Z,3.60
2022-11-05T00:08:25.099Z,3.30
2022-11-05T00:10:51.750Z,3.55
2022-11-05T00:13:37.125Z,3.10
2022-11-05T00:16:22.599Z,3.13
2022-11-05T00:19:06.520Z,3.30
2022-11-05T00:24:37.547Z,2.97
2022-11-05T00:27:04.775Z,3.22
2022-11-05T00:29:31.597Z,3.35
2022-11-05T00:31:58.321Z,3.38
2022-11-05T00:34:25.082Z,3.22
2022-11-05T00:36:51.770Z,3.60
2022-11-05T00:39:18.485Z,4.22
2022-11-05T00:42:05.068Z,3.50
2022-11-05T00:44:50.164Z,3.53
2022-11-05T00:47:35.613Z,3.58
2022-11-05T00:50:02.280Z,3.25
2022-11-05T00:52:47.475Z,3.50
2022-11-05T00:55:14.123Z,3.60
2022-11-05T00:57:40.789Z,3.20
2022-11-05T01:00:08.108Z,3.35
2022-11-05T01:02:34.906Z,3.38
2022-11-05T01:05:01.642Z,3.50
2022-11-05T01:07:28.315Z,3.40
2022-11-05T01:09:54.929Z,3.35
2022-11-05T01:12:21.941Z,3.83
2022-11-05T01:14:48.606Z,3.53
2022-11-05T01:17:15.199Z,3.30
2022-11-05T01:19:41.874Z,3.30
2022-11-05T01:22:08.603Z,3.47
2022-11-05T01:24:35.295Z,3.83
2022-11-05T01:27:01.907Z,3.80
2022-11-05T01:29:28.537Z,3.42
2022-11-05T01:31:55.100Z,3.00
2022-11-05T01:34:21.733Z,3.50
2022-11-05T01:36:48.403Z,3.20
2022-11-05T01:39:15.241Z,3.47
2022-11-05T01:41:41.986Z,3.25
2022-11-05T01:44:47.984Z,3.35
2022-11-05T01:47:53.657Z,3.22
2022-11-05T01:50:26.329Z,3.67
2022-11-05T01:52:57.174Z,3.33
2022-11-05T01:55:26.765Z,3.33
2022-11-05T01:57:57.775Z,3.25
2022-11-05T02:00:24.546Z,3.13
2022-11-05T02:02:51.310Z,3.13
2022-11-05T02:05:18.026Z,4.07
2022-11-05T02:07:47.314Z,3.40
2022-11-05T02:10:17.988Z,3.55
2022-11-05T02:12:47.885Z,3.53
2022-11-05T02:15:45.788Z,3.47
2022-11-05T02:18:30.552Z,3.13
2022-11-05T02:21:21.290Z,3.15
2022-11-05T02:24:19.736Z,3.20
2022-11-05T02:26:49.107Z,2.88
2022-11-05T02:29:38.800Z,3.22
2022-11-05T02:32:36.382Z,3.20
2022-11-05T02:35:27.344Z,3.30
2022-11-05T02:38:06.465Z,3.17
2022-11-05T02:40:44.111Z,3.10
2022-11-05T02:43:17.785Z,3.22
2022-11-05T02:46:16.532Z,2.90
2022-11-05T02:48:50.294Z,3.70
2022-11-05T02:51:26.749Z,3.40
2022-11-05T02:54:28.998Z,3.33
2022-11-05T02:56:58.099Z,3.25
2022-11-05T02:59:24.681Z,3.25
2022-11-05T03:01:52.042Z,3.05
2022-11-05T03:04:22.317Z,3.50
2022-11-05T03:07:07.435Z,3.38
2022-11-05T03:09:59.631Z,3.20
2022-11-05T03:12:29.117Z,3.45
2022-11-05T03:15:08.088Z,2.92
2022-11-05T03:18:09.668Z,3.15
2022-11-05T03:20:45.206Z,3.30
2022-11-05T03:23:22.016Z,3.08
2022-11-05T03:25:57.103Z,3.10
2022-11-05T03:28:28.019Z,3.00
2022-11-05T03:30:57.717Z,3.25
2022-11-05T03:33:29.047Z,3.15
2022-11-05T03:36:00.456Z,3.05
2022-11-05T03:38:35.608Z,3.15
2022-11-05T03:41:06.752Z,3.22
2022-11-05T03:43:38.190Z,3.35
2022-11-05T03:46:29.776Z,3.13
2022-11-05T03:49:01.204Z,3.78
2022-11-05T03:51:41.728Z,4.00
2022-11-05T03:54:09.723Z,3.20
2022-11-05T03:57:01.334Z,3.25
2022-11-05T03:59:32.605Z,3.08
2022-11-05T04:01:59.340Z,3.33
2022-11-05T04:04:26.056Z,3.15
2022-11-05T04:07:10.950Z,3.55
2022-11-05T04:09:56.133Z,3.42
2022-11-05T04:12:40.824Z,3.53
2022-11-05T04:15:08.088Z,3.50
2022-11-05T04:17:34.607Z,3.58
2022-11-05T04:20:19.862Z,3.28
2022-11-05T04:23:04.872Z,3.30
2022-11-05T04:25:31.587Z,3.60
2022-11-05T04:28:00.451Z,3.45
2022-11-05T04:30:27.708Z,3.58
2022-11-05T04:33:03.175Z,3.40
2022-11-05T04:35:37.447Z,4.10
2022-11-05T04:38:11.944Z,3.75
2022-11-05T04:40:42.248Z,3.63
2022-11-05T04:43:14.858Z,3.63
2022-11-05T04:45:42.083Z,3.50
2022-11-05T04:48:08.843Z,3.47
2022-11-05T04:50:35.578Z,3.80
2022-11-05T04:53:02.235Z,3.83
2022-11-05T04:55:28.776Z,3.63
2022-11-05T04:57:55.540Z,3.50
2022-11-05T05:00:23.414Z,3.80
2022-11-05T05:02:50.434Z,4.05
2022-11-05T05:05:17.198Z,3.83
2022-11-05T05:07:43.873Z,3.90
2022-11-05T05:10:11.380Z,3.97
2022-11-05T05:12:37.923Z,4.10
2022-11-05T05:15:05.242Z,3.97
2022-11-05T05:17:31.813Z,3.70
2022-11-05T05:20:17.075Z,4.25
2022-11-05T05:22:43.620Z,4.50
2022-11-05T05:25:10.137Z,3.97
2022-11-05T05:27:36.716Z,3.97
2022-11-05T05:30:03.549Z,4.10
2022-11-05T05:32:30.100Z,4.13
2022-11-05T05:34:56.705Z,4.28
2022-11-05T05:37:23.389Z,4.20
2022-11-05T05:39:49.938Z,3.88
2022-11-05T05:42:16.507Z,4.18
2022-11-05T05:44:43.089Z,4.07
2022-11-05T05:47:09.616Z,4.78
2022-11-05T05:49:36.175Z,4.13
2022-11-05T05:52:03.065Z,4.43
2022-11-05T05:54:33.442Z,4.00
2022-11-05T05:57:01.873Z,4.65
2022-11-05T05:59:28.415Z,4.53
2022-11-05T06:01:55.203Z,3.88
2022-11-05T06:04:21.919Z,4.18
2022-11-05T06:06:48.523Z,4.35
2022-11-05T06:09:15.531Z,4.53
2022-11-05T06:11:42.221Z,4.53
2022-11-05T06:14:13.128Z,4.32
2022-11-05T06:16:40.444Z,4.50
2022-11-05T06:19:07.837Z,4.40
2022-11-05T06:21:34.850Z,4.30
2022-11-05T06:24:02.469Z,4.68
2022-11-05T06:26:29.351Z,4.55
2022-11-05T06:28:56.029Z,4.40
2022-11-05T06:31:23.214Z,4.57
2022-11-05T06:33:49.778Z,5.10
2022-11-05T06:36:18.257Z,5.00
2022-11-05T06:38:45.027Z,4.68
2022-11-05T06:41:11.562Z,4.30
2022-11-05T06:43:38.655Z,4.60
2022-11-05T06:46:05.750Z,4.07
2022-11-05T06:48:32.352Z,4.53
2022-11-05T06:50:58.899Z,3.70
2022-11-05T06:53:28.469Z,2.85
2022-11-05T06:55:55.071Z,2.40
2022-11-05T06:58:21.658Z,2.17
2022-11-05T07:00:48.352Z,2.08
2022-11-05T07:03:15.247Z,2.03
2022-11-05T07:05:46.419Z,2.20
2022-11-05T07:08:13.011Z,2.08
2022-11-05T07:10:39.731Z,2.00
2022-11-05T07:13:08.324Z,1.88
2022-11-05T07:15:36.614Z,1.52
2022-11-05T07:18:03.758Z,1.80
2022-11-05T07:20:33.806Z,1.70
2022-11-05T07:23:05.282Z,2.00
2022-11-05T07:25:33.295Z,1.70
2022-11-05T07:28:00.305Z,1.85
2022-11-05T07:30:27.262Z,1.77
2022-11-05T07:32:54.004Z,1.65
2022-11-05T07:35:20.881Z,1.63
2022-11-05T07:37:49.762Z,1.73
2022-11-05T07:40:19.337Z,1.75
2022-11-05T07:42:50.988Z,2.00
2022-11-05T07:45:17.759Z,1.80
2022-11-05T07:47:49.216Z,1.85
2022-11-05T07:50:17.906Z,1.77
2022-11-05T07:52:45.181Z,2.05
2022-11-05T07:55:13.171Z,1.90
2022-11-05T07:57:44.853Z,2.15
2022-11-05T08:00:14.243Z,2.28
2022-11-05T08:02:42.075Z,1.95
2022-11-05T08:05:09.956Z,2.40
2022-11-05T08:07:36.517Z,2.38
2022-11-05T08:10:06.088Z,2.38
2022-11-05T08:12:32.719Z,2.55
2022-11-05T08:14:59.269Z,2.80
2022-11-05T08:17:26.047Z,2.33
2022-11-05T08:19:52.836Z,2.58
2022-11-05T08:22:19.488Z,2.83
2022-11-05T08:24:46.101Z,2.72
2022-11-05T08:27:12.750Z,2.38
2022-11-05T08:29:39.424Z,2.25
2022-11-05T08:32:06.007Z,2.58
2022-11-05T08:34:32.556Z,2.90
2022-11-05T08:37:01.269Z,2.72
2022-11-05T08:39:27.909Z,2.75
2022-11-05T08:41:54.770Z,2.80
2022-11-05T08:44:21.329Z,2.90
2022-11-05T08:46:47.976Z,2.55
2022-11-05T08:49:14.555Z,2.60
2022-11-05T08:51:41.096Z,2.70
2022-11-05T08:54:07.758Z,2.40
2022-11-05T08:56:34.525Z,2.22
2022-11-05T08:59:01.129Z,2.63
2022-11-05T09:01:27.846Z,2.50
2022-11-05T09:03:54.592Z,2.47
2022-11-05T09:06:24.306Z,2.22
2022-11-05T09:08:50.806Z,2.00
2022-11-05T09:11:18.262Z,2.20
2022-11-05T09:13:44.870Z,2.00
2022-11-05T09:16:20.810Z,1.88
2022-11-05T09:18:47.405Z,1.45
2022-11-05T09:21:13.994Z,1.40
2022-11-05T09:23:40.799Z,1.30
2022-11-05T09:26:07.512Z,1.80
2022-11-05T09:28:34.074Z,1.40
2022-11-05T09:31:00.904Z,1.17
2022-11-05T09:33:28.033Z,1.38
2022-11-05T09:35:54.653Z,1.30
2022-11-05T09:38:21.236Z,1.33
2022-11-05T09:40:57.045Z,1.42
2022-11-05T09:43:31.910Z,1.25
2022-11-05T09:46:03.619Z,1.23
2022-11-05T09:48:32.726Z,1.40
2022-11-05T09:50:59.632Z,1.50
2022-11-05T09:53:26.351Z,1.40
2022-11-05T09:55:58.700Z,1.50
2022-11-05T09:58:29.020Z,1.40
2022-11-05T10:00:56.662Z,1.52
2022-11-05T10:03:25.112Z,1.38
2022-11-05T10:05:53.789Z,1.13
2022-11-05T10:08:29.421Z,1.30
2022-11-05T10:11:02.457Z,1.17
2022-11-05T10:13:35.195Z,1.10
2022-11-05T10:16:13.445Z,0.98
2022-11-05T10:18:42.941Z,0.90
2022-11-05T10:21:17.231Z,1.20
2022-11-05T10:23:45.353Z,1.25
2022-11-05T10:26:16.056Z,1.10
2022-11-05T10:28:42.572Z,1.10
2022-11-05T10:31:14.432Z,0.90
2022-11-05T10:33:51.570Z,0.63
2022-11-05T10:36:28.057Z,0.85
2022-11-05T10:39:01.522Z,0.80
2022-11-05T10:41:50.322Z,0.75
2022-11-05T10:44:47.554Z,0.80
2022-11-05T10:47:29.344Z,0.70
2022-11-05T10:50:05.229Z,0.60
2022-11-05T10:52:51.983Z,0.80
2022-11-05T10:55:21.648Z,0.70
2022-11-05T10:57:51.503Z,0.60
2022-11-05T11:00:21.504Z,0.40
2022-11-05T11:02:58.457Z,0.60
2022-11-05T11:05:26.695Z,0.40
2022-11-05T11:07:56.623Z,0.40
2022-11-05T11:10:24.107Z,0.60
2022-11-05T11:12:51.541Z,0.50
2022-11-05T11:15:21.254Z,0.65
2022-11-05T11:17:48.018Z,0.40
2022-11-05T11:20:32.982Z,0.60
2022-11-05T11:23:14.394Z,0.40
2022-11-05T11:25:50.800Z,0.40
2022-11-05T11:28:25.253Z,0.40
2022-11-05T11:31:15.763Z,0.45
2022-11-05T11:33:53.246Z,0.40
2022-11-05T11:36:26.217Z,0.50
2022-11-05T11:39:00.018Z,0.50
2022-11-05T11:44:12.204Z,0.70
2022-11-05T11:46:39.254Z,0.50
2022-11-05T11:49:07.144Z,0.80
2022-11-05T11:51:40.474Z,0.80
2022-11-05T11:54:20.402Z,0.80
2022-11-05T11:56:48.456Z,0.93
2022-11-05T11:59:46.618Z,1.10
2022-11-05T12:02:25.037Z,1.00
2022-11-05T12:05:03.541Z,1.10
2022-11-05T12:07:45.584Z,1.00
2022-11-05T12:10:49.433Z,0.80
2022-11-05T12:13:18.990Z,1.20
2022-11-05T12:15:57.514Z,1.10
2022-11-05T12:18:26.973Z,1.15
2022-11-05T12:21:02.610Z,1.45
2022-11-05T12:23:53.773Z,1.17
2022-11-05T12:26:34.058Z,1.10
2022-11-05T12:29:34.431Z,1.20
2022-11-05T12:32:49.657Z,1.30
2022-11-05T12:35:29.926Z,1.25
2022-11-05T12:38:35.177Z,1.20
2022-11-05T12:41:30.283Z,1.33
2022-11-05T12:44:06.591Z,1.27
2022-11-05T12:47:09.937Z,2.50
2022-11-05T12:49:36.601Z,3.72
2022-11-05T12:52:05.835Z,2.97
2022-11-05T12:54:51.072Z,1.70
2022-11-05T12:57:19.974Z,1.80
2022-11-05T12:59:52.308Z,2.33
2022-11-05T13:02:34.522Z,2.15
2022-11-05T13:05:04.593Z,2.15
2022-11-05T13:07:39.417Z,2.58
2022-11-05T13:10:26.213Z,2.42
2022-11-05T13:13:13.667Z,2.92
2022-11-05T13:15:49.473Z,2.88
2022-11-05T13:18:22.391Z,3.15
2022-11-05T13:20:51.074Z,3.00
2022-11-05T13:23:32.471Z,2.80
2022-11-05T13:26:19.522Z,3.55
2022-11-05T13:28:53.018Z,3.25
2022-11-05T13:31:27.498Z,2.58
2022-11-05T13:33:55.339Z,3.60
2022-11-05T13:36:46.148Z,3.80
2022-11-05T13:39:30.725Z,4.28
2022-11-05T13:42:19.063Z,5.15
2022-11-05T13:45:08.515Z,5.40
2022-11-05T13:47:53.732Z,5.40
2022-11-05T13:50:50.844Z,4.85
2022-11-05T13:53:20.267Z,3.40
2022-11-05T13:55:57.663Z,2.10
2022-11-05T13:58:49.907Z,3.78
2022-11-05T14:01:28.716Z,3.63
2022-11-05T14:03:56.689Z,3.85
2022-11-05T14:06:31.026Z,3.25
2022-11-05T14:09:09.349Z,2.95
2022-11-05T14:11:44.167Z,3.35
2022-11-05T14:14:19.713Z,3.60
2022-11-05T14:16:53.873Z,2.90
2022-11-05T14:19:20.391Z,2.85
2022-11-05T14:21:54.445Z,2.78
2022-11-05T14:24:24.139Z,2.70
2022-11-05T14:27:02.817Z,2.78
2022-11-05T14:29:42.594Z,2.65
2022-11-05T14:32:18.709Z,2.50
2022-11-05T14:35:15.657Z,2.60
2022-11-05T14:37:56.318Z,2.50
2022-11-05T14:40:29.177Z,2.30
2022-11-05T14:42:58.358Z,2.70
2022-11-05T14:45:29.531Z,2.75
2022-11-05T14:48:22.645Z,2.20
2022-11-05T14:50:49.776Z,2.55
2022-11-05T14:53:35.151Z,2.60
2022-11-05T14:56:08.194Z,2.47
2022-11-05T14:58:39.954Z,1.85
2022-11-05T15:01:09.462Z,2.40
2022-11-05T15:03:46.490Z,2.55
2022-11-05T15:06:36.091Z,2.50
2022-11-05T15:09:05.601Z,2.30
2022-11-05T15:11:39.682Z,2.78
2022-11-05T15:14:40.412Z,2.40
2022-11-05T15:17:22.502Z,2.63
2022-11-05T15:19:51.160Z,2.22
2022-11-05T15:22:27.098Z,2.20
2022-11-05T15:24:54.156Z,2.20
2022-11-05T15:27:39.184Z,2.00
2022-11-05T15:30:21.266Z,1.95
2022-11-05T15:32:48.109Z,1.80
2022-11-05T15:35:20.862Z,1.48
2022-11-05T15:37:54.527Z,1.90
2022-11-05T15:40:26.563Z,5.07
2022-11-05T15:43:19.631Z,3.03
2022-11-05T15:46:06.024Z,3.58
2022-11-05T15:48:33.778Z,5.10
2022-11-05T15:51:00.773Z,2.70
2022-11-05T15:54:16.092Z,3.00
2022-11-05T15:56:52.828Z,3.42
2022-11-05T15:59:21.460Z,5.53
2022-11-05T16:01:54.056Z,5.45
2022-11-05T16:04:28.481Z,5.32
2022-11-05T16:06:59.718Z,4.20
2022-11-05T16:09:29.329Z,3.70
2022-11-05T16:12:12.767Z,4.00
2022-11-05T16:14:39.869Z,3.60
2022-11-05T16:17:22.204Z,3.33
2022-11-05T16:19:50.339Z,3.50
2022-11-05T16:22:17.518Z,3.47
2022-11-05T16:24:45.274Z,3.65
2022-11-05T16:27:19.304Z,3.33
2022-11-05T16:29:55.494Z,3.63
2022-11-05T16:32:29.856Z,3.30
2022-11-05T16:34:58.662Z,17.98
2022-11-05T16:37:27.024Z,5.50
2022-11-05T16:39:54.021Z,4.38
2022-11-05T16:42:23.640Z,5.57
2022-11-05T16:44:57.424Z,4.45
2022-11-05T16:47:26.372Z,4.45
2022-11-05T16:49:53.010Z,4.15
2022-11-05T16:52:19.530Z,4.45
2022-11-05T16:54:46.078Z,4.38
2022-11-05T16:57:24.256Z,3.53
2022-11-05T16:59:50.854Z,3.20
2022-11-05T17:02:17.562Z,3.60
2022-11-05T17:04:44.645Z,4.85
2022-11-05T17:07:11.129Z,4.57
2022-11-05T17:09:37.873Z,5.35
2022-11-05T17:12:04.588Z,5.57
2022-11-05T17:14:31.089Z,5.47
2022-11-05T17:17:00.699Z,3.30
2022-11-05T17:19:27.495Z,5.32
2022-11-05T17:21:54.027Z,4.85
2022-11-05T17:24:20.559Z,3.40
2022-11-05T17:26:47.232Z,3.22
2022-11-05T17:29:13.788Z,3.55
2022-11-05T17:31:40.864Z,2.90
2022-11-05T17:34:07.548Z,2.83
2022-11-05T17:36:34.116Z,2.72
2022-11-05T17:39:00.709Z,3.13
2022-11-05T17:41:27.350Z,3.20
2022-11-05T17:43:56.437Z,3.35
2022-11-05T17:46:24.219Z,3.20
2022-11-05T17:48:51.499Z,3.05
2022-11-05T17:51:19.351Z,3.30
2022-11-05T17:53:47.299Z,3.50
2022-11-05T17:56:23.592Z,3.53
2022-11-05T17:58:56.106Z,3.47
2022-11-05T18:01:27.238Z,3.60
2022-11-05T18:03:54.223Z,3.25
2022-11-05T18:06:21.270Z,3.95
2022-11-05T18:08:47.862Z,4.53
2022-11-05T18:11:14.587Z,5.93
2022-11-05T18:13:41.136Z,6.80
2022-11-05T18:16:07.957Z,7.63
2022-11-05T18:18:34.548Z,7.90
2022-11-05T18:21:01.397Z,8.02
2022-11-05T18:23:27.912Z,5.75
2022-11-05T18:25:54.514Z,6.82
2022-11-05T18:28:21.030Z,7.10
2022-11-05T18:30:47.655Z,7.05
2022-11-05T18:33:14.506Z,7.60
2022-11-05T18:35:44.836Z,7.28
2022-11-05T18:38:11.908Z,7.50
2022-11-05T18:40:38.568Z,7.35
2022-11-05T18:43:05.154Z,7.28
2022-11-05T18:45:33.346Z,6.53
2022-11-05T18:48:03.871Z,6.20
2022-11-05T18:50:30.684Z,5.57
2022-11-05T18:52:57.603Z,5.65
2022-11-05T18:55:24.783Z,6.10
2022-11-05T18:57:51.457Z,7.10
2022-11-05T19:00:18.278Z,5.13
2022-11-05T19:02:45.122Z,6.97
2022-11-05T19:05:28.477Z,7.63
2022-11-05T19:07:55.817Z,5.93
2022-11-05T19:10:22.498Z,5.50
2022-11-05T19:12:49.280Z,4.97
2022-11-05T19:15:15.845Z,5.47
2022-11-05T19:17:42.667Z,5.38
2022-11-05T19:20:09.679Z,5.40
2022-11-05T19:22:36.260Z,4.88
2022-11-05T19:25:03.463Z,4.15
2022-11-05T19:27:30.030Z,4.25
2022-11-05T19:29:56.712Z,4.00
2022-11-05T19:32:24.047Z,4.28
2022-11-05T19:34:50.592Z,4.40
2022-11-05T19:37:17.112Z,5.15
2022-11-05T19:39:46.827Z,7.05
2022-11-05T19:42:13.538Z,6.50
2022-11-05T19:44:40.856Z,7.03
2022-11-05T19:47:07.416Z,7.68
2022-11-05T19:49:34.034Z,8.02
2022-11-05T19:52:00.623Z,8.98
2022-11-05T19:54:27.160Z,9.50
2022-11-05T19:56:53.709Z,7.82
2022-11-05T19:59:20.375Z,5.70
2022-11-05T20:01:47.037Z,5.50
2022-11-05T20:04:13.709Z,5.63
2022-11-05T20:06:40.794Z,5.38
2022-11-05T20:09:27.200Z,5.95
2022-11-05T20:11:57.028Z,6.43
2022-11-05T20:14:25.232Z,6.10
2022-11-05T20:16:52.820Z,7.22
2022-11-05T20:19:21.339Z,8.73
2022-11-05T20:21:48.314Z,10.98
2022-11-05T20:24:25.323Z,14.52
2022-11-05T20:26:55.886Z,23.25
2022-11-05T20:29:23.329Z,37.28
2022-11-05T20:31:50.486Z,24.75
2022-11-05T20:34:17.138Z,9.00
2022-11-05T20:36:43.698Z,6.10
2022-11-05T20:39:13.143Z,5.35
2022-11-05T20:41:39.844Z,5.30
2022-11-05T20:44:06.506Z,6.43
2022-11-05T20:46:33.955Z,6.10
2022-11-05T20:49:00.473Z,6.60
2022-11-05T20:51:27.058Z,6.90
2022-11-05T20:53:55.915Z,7.47
2022-11-05T20:56:25.380Z,6.85
2022-11-05T20:58:52.897Z,6.50
2022-11-05T21:01:19.935Z,7.50
2022-11-05T21:03:47.751Z,7.53
2022-11-05T21:06:15.423Z,7.97
2022-11-05T21:08:42.804Z,7.30
2022-11-05T21:11:10.736Z,7.20
2022-11-05T21:13:37.896Z,6.20
2022-11-05T21:16:07.095Z,5.10
2022-11-05T21:18:35.221Z,7.00
2022-11-05T21:21:06.811Z,5.50
2022-11-05T21:23:33.314Z,4.68
2022-11-05T21:26:07.333Z,3.83
2022-11-05T21:28:34.781Z,3.88
2022-11-05T21:31:02.488Z,4.00
2022-11-05T21:33:29.624Z,3.90
2022-11-05T21:35:56.786Z,4.15
2022-11-05T21:38:23.463Z,3.95
2022-11-05T21:40:49.996Z,4.13
2022-11-05T21:43:16.979Z,4.88
2022-11-05T21:45:45.232Z,4.28
2022-11-05T21:48:15.094Z,4.40
2022-11-05T21:51:00.949Z,5.05
2022-11-05T21:53:46.308Z,4.03
2022-11-05T21:56:42.865Z,4.05
2022-11-05T21:59:33.424Z,6.93
2022-11-05T22:02:03.012Z,7.80
2022-11-05T22:04:41.380Z,8.65
2022-11-05T22:07:09.460Z,13.45
2022-11-05T22:09:36.461Z,12.77
2022-11-05T22:12:03.861Z,10.20
2022-11-05T22:14:30.940Z,7.32
2022-11-05T22:16:58.350Z,7.30
2022-11-05T22:19:25.452Z,7.28
2022-11-05T22:21:52.248Z,5.45
2022-11-05T22:24:19.307Z,4.78
2022-11-05T22:26:46.424Z,4.95
2022-11-05T22:29:13.322Z,3.88
2022-11-05T22:31:40.254Z,3.90
2022-11-05T22:34:07.798Z,4.07
2022-11-05T22:36:34.749Z,3.97
2022-11-05T22:39:02.190Z,5.32
2022-11-05T22:41:28.977Z,5.50
2022-11-05T22:43:55.876Z,9.95
2022-11-05T22:46:24.645Z,8.52
2022-11-05T22:48:52.320Z,7.28
2022-11-05T22:51:22.156Z,6.20
2022-11-05T22:53:49.704Z,5.63
2022-11-05T22:56:18.937Z,5.40
2022-11-05T22:58:45.871Z,4.00
2022-11-05T23:01:14.216Z,3.60
2022-11-05T23:03:43.189Z,4.13
2022-11-05T23:06:36.699Z,4.30
2022-11-05T23:09:24.845Z,6.70
2022-11-05T23:11:53.689Z,4.82
2022-11-05T23:14:20.375Z,3.30
2022-11-05T23:17:05.608Z,2.80
2022-11-05T23:19:50.462Z,2.97
2022-11-05T23:22:38.997Z,3.10
2022-11-05T23:25:07.455Z,3.10
2022-11-05T23:27:36.523Z,3.05
2022-11-05T23:30:08.170Z,3.03
2022-11-05T23:32:35.843Z,3.25
2022-11-05T23:35:03.253Z,2.90
2022-11-05T23:37:49.506Z,3.00
2022-11-05T23:40:21.963Z,3.13
2022-11-05T23:43:07.981Z,2.90
2022-11-05T23:45:56.574Z,2.85
2022-11-05T23:48:26.232Z,3.55
2022-11-05T23:50:55.794Z,3.17
2022-11-05T23:53:23.237Z,3.13
2022-11-05T23:55:50.337Z,3.35
2022-11-05T23:58:17.736Z,3.20
